sensor_id;sensor_type;location;lat;lon;timestamp;temperature;humidity
51557;DHT22;38766;53.194;5.532;2023-05-16T00:01:25;10.00;99.90
51557;DHT22;38766;53.194;5.532;2023-05-16T00:03:55;9.90;99.90
51557;DHT22;38766;53.194;5.532;2023-05-16T00:06:21;10.00;99.90
51557;DHT22;38766;53.194;5.532;2023-05-16T00:08:47;10.00;99.90
51557;DHT22;38766;53.194;5.532;2023-05-16T00:11:15;10.00;99.90
51557;DHT22;38766;53.194;5.532;2023-05-16T00:13:40;9.90;99.90
51557;DHT22;38766;53.194;5.532;2023-05-16T00:16:07;9.90;99.90
51557;DHT22;38766;53.194;5.532;2023-05-16T00:18:33;9.90;99.90
51557;DHT22;38766;53.194;5.532;2023-05-16T00:21:02;9.90;99.90
51557;DHT22;38766;53.194;5.532;2023-05-16T00:23:29;9.80;99.90
51557;DHT22;38766;53.194;5.532;2023-05-16T00:25:55;9.80;99.90
51557;DHT22;38766;53.194;5.532;2023-05-16T00:28:21;9.80;99.90
51557;DHT22;38766;53.194;5.532;2023-05-16T00:30:47;9.80;99.90
51557;DHT22;38766;53.194;5.532;2023-05-16T00:33:12;9.80;99.90
51557;DHT22;38766;53.194;5.532;2023-05-16T00:35:38;9.70;99.90
51557;DHT22;38766;53.194;5.532;2023-05-16T00:38:04;9.70;99.90
51557;DHT22;38766;53.194;5.532;2023-05-16T00:40:31;9.70;99.90
51557;DHT22;38766;53.194;5.532;2023-05-16T00:42:57;9.70;99.90
51557;DHT22;38766;53.194;5.532;2023-05-16T00:45:22;9.70;99.90
51557;DHT22;38766;53.194;5.532;2023-05-16T00:47:49;9.70;99.90
51557;DHT22;38766;53.194;5.532;2023-05-16T00:50:15;9.60;99.90
51557;DHT22;38766;53.194;5.532;2023-05-16T00:52:41;9.70;99.90
51557;DHT22;38766;53.194;5.532;2023-05-16T00:55:08;9.70;99.90
51557;DHT22;38766;53.194;5.532;2023-05-16T00:57:36;9.60;99.90
51557;DHT22;38766;53.194;5.532;2023-05-16T01:00:06;9.70;99.90
51557;DHT22;38766;53.194;5.532;2023-05-16T01:02:33;9.60;99.90
51557;DHT22;38766;53.194;5.532;2023-05-16T01:04:59;9.60;99.90
51557;DHT22;38766;53.194;5.532;2023-05-16T01:07:25;9.60;99.90
51557;DHT22;38766;53.194;5.532;2023-05-16T01:09:51;9.60;99.90
51557;DHT22;38766;53.194;5.532;2023-05-16T01:12:23;9.70;99.90
51557;DHT22;38766;53.194;5.532;2023-05-16T01:17:52;9.70;99.90
51557;DHT22;38766;53.194;5.532;2023-05-16T01:20:36;9.70;99.90
51557;DHT22;38766;53.194;5.532;2023-05-16T01:28:44;9.70;99.90
51557;DHT22;38766;53.194;5.532;2023-05-16T01:31:10;9.60;99.90
51557;DHT22;38766;53.194;5.532;2023-05-16T01:33:36;9.70;99.90
51557;DHT22;38766;53.194;5.532;2023-05-16T01:39:01;9.70;99.90
51557;DHT22;38766;53.194;5.532;2023-05-16T01:41:38;9.70;99.90
51557;DHT22;38766;53.194;5.532;2023-05-16T01:44:17;9.70;99.90
51557;DHT22;38766;53.194;5.532;2023-05-16T01:46:45;9.70;99.90
51557;DHT22;38766;53.194;5.532;2023-05-16T01:51:43;9.60;99.90
51557;DHT22;38766;53.194;5.532;2023-05-16T01:54:11;9.60;99.90
51557;DHT22;38766;53.194;5.532;2023-05-16T01:56:38;9.60;99.90
51557;DHT22;38766;53.194;5.532;2023-05-16T01:59:06;9.60;99.90
51557;DHT22;38766;53.194;5.532;2023-05-16T02:01:33;9.60;99.90
51557;DHT22;38766;53.194;5.532;2023-05-16T02:03:59;9.60;99.90
51557;DHT22;38766;53.194;5.532;2023-05-16T02:06:25;9.60;99.90
51557;DHT22;38766;53.194;5.532;2023-05-16T02:08:50;9.60;99.90
51557;DHT22;38766;53.194;5.532;2023-05-16T02:11:17;9.50;99.90
51557;DHT22;38766;53.194;5.532;2023-05-16T02:13:42;9.50;99.90
51557;DHT22;38766;53.194;5.532;2023-05-16T02:16:10;9.50;99.90
51557;DHT22;38766;53.194;5.532;2023-05-16T02:18:35;9.50;99.90
51557;DHT22;38766;53.194;5.532;2023-05-16T02:21:01;9.40;99.90
51557;DHT22;38766;53.194;5.532;2023-05-16T02:23:27;9.40;99.90
51557;DHT22;38766;53.194;5.532;2023-05-16T02:25:52;9.40;99.90
51557;DHT22;38766;53.194;5.532;2023-05-16T02:28:18;9.40;99.90
51557;DHT22;38766;53.194;5.532;2023-05-16T02:30:44;9.40;99.90
51557;DHT22;38766;53.194;5.532;2023-05-16T02:33:10;9.40;99.90
51557;DHT22;38766;53.194;5.532;2023-05-16T02:35:36;9.40;99.90
51557;DHT22;38766;53.194;5.532;2023-05-16T02:38:01;9.40;99.90
51557;DHT22;38766;53.194;5.532;2023-05-16T02:40:27;9.50;99.90
51557;DHT22;38766;53.194;5.532;2023-05-16T02:42:52;9.50;99.90
51557;DHT22;38766;53.194;5.532;2023-05-16T02:45:18;9.50;99.90
51557;DHT22;38766;53.194;5.532;2023-05-16T02:47:44;9.50;99.90
51557;DHT22;38766;53.194;5.532;2023-05-16T02:50:09;9.50;99.90
51557;DHT22;38766;53.194;5.532;2023-05-16T02:52:35;9.50;99.90
51557;DHT22;38766;53.194;5.532;2023-05-16T02:55:01;9.40;99.90
51557;DHT22;38766;53.194;5.532;2023-05-16T02:57:27;9.40;99.90
51557;DHT22;38766;53.194;5.532;2023-05-16T02:59:52;9.50;99.90
51557;DHT22;38766;53.194;5.532;2023-05-16T03:02:18;9.40;99.90
51557;DHT22;38766;53.194;5.532;2023-05-16T03:04:43;9.50;99.90
51557;DHT22;38766;53.194;5.532;2023-05-16T03:07:09;9.50;99.90
51557;DHT22;38766;53.194;5.532;2023-05-16T03:09:35;9.50;99.90
51557;DHT22;38766;53.194;5.532;2023-05-16T03:12:01;9.50;99.90
51557;DHT22;38766;53.194;5.532;2023-05-16T03:14:26;9.50;99.90
51557;DHT22;38766;53.194;5.532;2023-05-16T03:16:52;9.50;99.90
51557;DHT22;38766;53.194;5.532;2023-05-16T03:19:17;9.50;99.90
51557;DHT22;38766;53.194;5.532;2023-05-16T03:21:43;9.50;99.90
51557;DHT22;38766;53.194;5.532;2023-05-16T03:24:09;9.50;99.90
51557;DHT22;38766;53.194;5.532;2023-05-16T03:26:35;9.50;99.90
51557;DHT22;38766;53.194;5.532;2023-05-16T03:29:01;9.60;99.90
51557;DHT22;38766;53.194;5.532;2023-05-16T03:31:26;9.60;99.90
51557;DHT22;38766;53.194;5.532;2023-05-16T03:33:52;9.60;99.90
51557;DHT22;38766;53.194;5.532;2023-05-16T03:36:20;9.60;99.90
51557;DHT22;38766;53.194;5.532;2023-05-16T03:38:46;9.50;99.90
51557;DHT22;38766;53.194;5.532;2023-05-16T03:41:12;9.60;99.90
51557;DHT22;38766;53.194;5.532;2023-05-16T03:43:37;9.70;99.90
51557;DHT22;38766;53.194;5.532;2023-05-16T03:46:03;9.60;99.90
51557;DHT22;38766;53.194;5.532;2023-05-16T03:48:29;9.60;99.90
51557;DHT22;38766;53.194;5.532;2023-05-16T03:50:54;9.60;99.90
51557;DHT22;38766;53.194;5.532;2023-05-16T03:53:20;9.60;99.90
51557;DHT22;38766;53.194;5.532;2023-05-16T03:55:46;9.50;99.90
51557;DHT22;38766;53.194;5.532;2023-05-16T03:58:11;9.60;99.90
51557;DHT22;38766;53.194;5.532;2023-05-16T04:00:37;9.60;99.90
51557;DHT22;38766;53.194;5.532;2023-05-16T04:03:02;9.60;99.90
51557;DHT22;38766;53.194;5.532;2023-05-16T04:05:29;9.60;99.90
51557;DHT22;38766;53.194;5.532;2023-05-16T04:07:54;9.50;99.90
51557;DHT22;38766;53.194;5.532;2023-05-16T04:10:20;9.60;99.90
51557;DHT22;38766;53.194;5.532;2023-05-16T04:12:46;9.60;99.90
51557;DHT22;38766;53.194;5.532;2023-05-16T04:15:11;9.60;99.90
51557;DHT22;38766;53.194;5.532;2023-05-16T04:17:37;9.60;99.90
51557;DHT22;38766;53.194;5.532;2023-05-16T04:20:03;9.70;99.90
51557;DHT22;38766;53.194;5.532;2023-05-16T04:22:29;9.70;99.90
51557;DHT22;38766;53.194;5.532;2023-05-16T04:24:55;9.70;99.90
51557;DHT22;38766;53.194;5.532;2023-05-16T04:27:21;9.70;99.90
51557;DHT22;38766;53.194;5.532;2023-05-16T04:29:47;9.70;99.90
51557;DHT22;38766;53.194;5.532;2023-05-16T04:32:13;9.70;99.90
51557;DHT22;38766;53.194;5.532;2023-05-16T04:34:39;9.70;99.90
51557;DHT22;38766;53.194;5.532;2023-05-16T04:37:05;9.70;99.90
51557;DHT22;38766;53.194;5.532;2023-05-16T04:39:32;9.80;99.90
51557;DHT22;38766;53.194;5.532;2023-05-16T04:41:57;9.80;99.90
51557;DHT22;38766;53.194;5.532;2023-05-16T04:44:24;9.80;99.90
51557;DHT22;38766;53.194;5.532;2023-05-16T04:46:50;9.80;99.90
51557;DHT22;38766;53.194;5.532;2023-05-16T04:49:18;9.80;99.90
51557;DHT22;38766;53.194;5.532;2023-05-16T04:51:43;9.70;99.90
51557;DHT22;38766;53.194;5.532;2023-05-16T04:54:09;9.70;99.90
51557;DHT22;38766;53.194;5.532;2023-05-16T04:56:35;9.80;99.90
51557;DHT22;38766;53.194;5.532;2023-05-16T04:59:01;9.80;99.90
51557;DHT22;38766;53.194;5.532;2023-05-16T05:01:28;9.80;99.90
51557;DHT22;38766;53.194;5.532;2023-05-16T05:03:54;9.80;99.90
51557;DHT22;38766;53.194;5.532;2023-05-16T05:06:19;9.80;99.90
51557;DHT22;38766;53.194;5.532;2023-05-16T05:08:46;9.80;99.90
51557;DHT22;38766;53.194;5.532;2023-05-16T05:11:11;9.90;99.90
51557;DHT22;38766;53.194;5.532;2023-05-16T05:13:37;9.90;99.90
51557;DHT22;38766;53.194;5.532;2023-05-16T05:16:03;9.90;99.90
51557;DHT22;38766;53.194;5.532;2023-05-16T05:18:29;9.90;99.90
51557;DHT22;38766;53.194;5.532;2023-05-16T05:20:55;9.80;99.90
51557;DHT22;38766;53.194;5.532;2023-05-16T05:23:20;9.90;99.90
51557;DHT22;38766;53.194;5.532;2023-05-16T05:25:46;9.90;99.90
51557;DHT22;38766;53.194;5.532;2023-05-16T05:28:12;9.90;99.90
51557;DHT22;38766;53.194;5.532;2023-05-16T05:30:37;9.90;99.90
51557;DHT22;38766;53.194;5.532;2023-05-16T05:33:03;10.00;99.90
51557;DHT22;38766;53.194;5.532;2023-05-16T05:35:29;10.00;99.90
51557;DHT22;38766;53.194;5.532;2023-05-16T05:37:54;10.00;99.90
51557;DHT22;38766;53.194;5.532;2023-05-16T05:40:20;10.10;99.90
51557;DHT22;38766;53.194;5.532;2023-05-16T05:42:46;10.20;99.90
51557;DHT22;38766;53.194;5.532;2023-05-16T05:45:11;10.30;99.90
51557;DHT22;38766;53.194;5.532;2023-05-16T05:47:37;10.30;99.90
51557;DHT22;38766;53.194;5.532;2023-05-16T05:50:03;10.40;99.90
51557;DHT22;38766;53.194;5.532;2023-05-16T05:52:30;10.40;99.90
51557;DHT22;38766;53.194;5.532;2023-05-16T05:54:55;10.30;99.90
51557;DHT22;38766;53.194;5.532;2023-05-16T05:57:23;10.40;99.90
51557;DHT22;38766;53.194;5.532;2023-05-16T05:59:49;10.40;99.90
51557;DHT22;38766;53.194;5.532;2023-05-16T06:02:14;10.40;99.90
51557;DHT22;38766;53.194;5.532;2023-05-16T06:04:40;10.50;99.90
51557;DHT22;38766;53.194;5.532;2023-05-16T06:07:07;10.60;99.90
51557;DHT22;38766;53.194;5.532;2023-05-16T06:09:32;10.50;99.90
51557;DHT22;38766;53.194;5.532;2023-05-16T06:11:58;10.60;99.90
51557;DHT22;38766;53.194;5.532;2023-05-16T06:14:24;10.50;99.90
51557;DHT22;38766;53.194;5.532;2023-05-16T06:16:50;10.60;99.90
51557;DHT22;38766;53.194;5.532;2023-05-16T06:19:17;10.60;99.90
51557;DHT22;38766;53.194;5.532;2023-05-16T06:21:43;10.60;99.90
51557;DHT22;38766;53.194;5.532;2023-05-16T06:24:09;10.60;99.90
51557;DHT22;38766;53.194;5.532;2023-05-16T06:26:36;10.70;99.90
51557;DHT22;38766;53.194;5.532;2023-05-16T06:29:02;10.60;99.90
51557;DHT22;38766;53.194;5.532;2023-05-16T06:31:28;10.90;99.90
51557;DHT22;38766;53.194;5.532;2023-05-16T06:33:53;10.90;99.90
51557;DHT22;38766;53.194;5.532;2023-05-16T06:36:19;11.10;99.90
51557;DHT22;38766;53.194;5.532;2023-05-16T06:38:45;11.20;99.90
51557;DHT22;38766;53.194;5.532;2023-05-16T06:41:10;11.30;99.90
51557;DHT22;38766;53.194;5.532;2023-05-16T06:43:36;11.40;99.90
51557;DHT22;38766;53.194;5.532;2023-05-16T06:46:02;11.60;99.90
51557;DHT22;38766;53.194;5.532;2023-05-16T06:48:28;11.70;99.90
51557;DHT22;38766;53.194;5.532;2023-05-16T06:50:54;11.80;99.90
51557;DHT22;38766;53.194;5.532;2023-05-16T06:53:20;11.90;99.90
51557;DHT22;38766;53.194;5.532;2023-05-16T06:55:46;12.10;99.90
51557;DHT22;38766;53.194;5.532;2023-05-16T06:58:12;12.40;99.90
51557;DHT22;38766;53.194;5.532;2023-05-16T07:00:37;12.50;99.90
51557;DHT22;38766;53.194;5.532;2023-05-16T07:03:03;12.60;99.90
51557;DHT22;38766;53.194;5.532;2023-05-16T07:05:29;12.70;99.90
51557;DHT22;38766;53.194;5.532;2023-05-16T07:07:55;12.60;99.90
51557;DHT22;38766;53.194;5.532;2023-05-16T07:10:21;12.50;99.90
51557;DHT22;38766;53.194;5.532;2023-05-16T07:12:47;12.30;99.90
51557;DHT22;38766;53.194;5.532;2023-05-16T07:15:13;12.10;99.90
51557;DHT22;38766;53.194;5.532;2023-05-16T07:17:38;11.90;99.90
51557;DHT22;38766;53.194;5.532;2023-05-16T07:20:05;11.80;99.90
51557;DHT22;38766;53.194;5.532;2023-05-16T07:22:31;11.70;99.90
51557;DHT22;38766;53.194;5.532;2023-05-16T07:24:57;11.80;99.90
51557;DHT22;38766;53.194;5.532;2023-05-16T07:27:25;11.80;99.90
51557;DHT22;38766;53.194;5.532;2023-05-16T07:29:52;12.00;99.90
51557;DHT22;38766;53.194;5.532;2023-05-16T07:32:17;12.10;99.90
51557;DHT22;38766;53.194;5.532;2023-05-16T07:34:43;12.10;99.90
51557;DHT22;38766;53.194;5.532;2023-05-16T07:37:08;12.10;99.90
51557;DHT22;38766;53.194;5.532;2023-05-16T07:39:39;12.00;99.90
51557;DHT22;38766;53.194;5.532;2023-05-16T07:42:06;11.80;99.90
51557;DHT22;38766;53.194;5.532;2023-05-16T07:44:32;11.80;99.90
51557;DHT22;38766;53.194;5.532;2023-05-16T07:46:58;11.80;99.90
51557;DHT22;38766;53.194;5.532;2023-05-16T07:49:24;12.00;99.90
51557;DHT22;38766;53.194;5.532;2023-05-16T07:51:50;12.20;99.90
51557;DHT22;38766;53.194;5.532;2023-05-16T07:54:16;12.40;99.90
51557;DHT22;38766;53.194;5.532;2023-05-16T07:56:42;12.50;99.90
51557;DHT22;38766;53.194;5.532;2023-05-16T07:59:08;12.60;99.90
51557;DHT22;38766;53.194;5.532;2023-05-16T08:01:34;12.60;99.90
51557;DHT22;38766;53.194;5.532;2023-05-16T08:04:00;12.90;99.90
51557;DHT22;38766;53.194;5.532;2023-05-16T08:06:25;13.00;99.90
51557;DHT22;38766;53.194;5.532;2023-05-16T08:08:51;13.20;99.90
51557;DHT22;38766;53.194;5.532;2023-05-16T08:11:18;13.40;99.90
51557;DHT22;38766;53.194;5.532;2023-05-16T08:13:44;13.60;99.90
51557;DHT22;38766;53.194;5.532;2023-05-16T08:16:10;13.80;99.90
51557;DHT22;38766;53.194;5.532;2023-05-16T08:18:36;13.90;99.90
51557;DHT22;38766;53.194;5.532;2023-05-16T08:21:02;14.10;99.90
51557;DHT22;38766;53.194;5.532;2023-05-16T08:23:27;14.00;99.90
51557;DHT22;38766;53.194;5.532;2023-05-16T08:25:53;14.10;99.90
51557;DHT22;38766;53.194;5.532;2023-05-16T08:28:19;14.20;99.90
51557;DHT22;38766;53.194;5.532;2023-05-16T08:30:44;14.30;99.90
51557;DHT22;38766;53.194;5.532;2023-05-16T08:33:10;14.30;99.90
51557;DHT22;38766;53.194;5.532;2023-05-16T08:35:36;14.10;99.90
51557;DHT22;38766;53.194;5.532;2023-05-16T08:38:01;14.00;99.90
51557;DHT22;38766;53.194;5.532;2023-05-16T08:40:27;13.90;99.90
51557;DHT22;38766;53.194;5.532;2023-05-16T08:42:54;13.90;99.90
51557;DHT22;38766;53.194;5.532;2023-05-16T08:45:21;13.90;99.90
51557;DHT22;38766;53.194;5.532;2023-05-16T08:47:49;13.90;99.90
51557;DHT22;38766;53.194;5.532;2023-05-16T08:50:15;14.00;99.90
51557;DHT22;38766;53.194;5.532;2023-05-16T08:52:42;14.20;99.90
51557;DHT22;38766;53.194;5.532;2023-05-16T08:55:08;14.40;99.90
51557;DHT22;38766;53.194;5.532;2023-05-16T08:57:34;14.60;99.90
51557;DHT22;38766;53.194;5.532;2023-05-16T09:00:01;14.70;99.90
51557;DHT22;38766;53.194;5.532;2023-05-16T09:02:40;14.80;99.90
51557;DHT22;38766;53.194;5.532;2023-05-16T09:05:08;15.00;99.90
51557;DHT22;38766;53.194;5.532;2023-05-16T09:07:35;15.20;99.90
51557;DHT22;38766;53.194;5.532;2023-05-16T09:10:01;15.30;99.90
51557;DHT22;38766;53.194;5.532;2023-05-16T09:12:26;15.40;99.90
51557;DHT22;38766;53.194;5.532;2023-05-16T09:14:52;15.60;99.90
51557;DHT22;38766;53.194;5.532;2023-05-16T09:17:18;15.60;99.90
51557;DHT22;38766;53.194;5.532;2023-05-16T09:19:43;15.60;99.90
51557;DHT22;38766;53.194;5.532;2023-05-16T09:22:13;15.70;99.90
51557;DHT22;38766;53.194;5.532;2023-05-16T09:24:40;15.80;99.90
51557;DHT22;38766;53.194;5.532;2023-05-16T09:27:13;15.80;99.90
51557;DHT22;38766;53.194;5.532;2023-05-16T09:29:45;15.70;99.90
51557;DHT22;38766;53.194;5.532;2023-05-16T09:32:15;15.70;99.90
51557;DHT22;38766;53.194;5.532;2023-05-16T09:34:46;15.70;99.90
51557;DHT22;38766;53.194;5.532;2023-05-16T09:37:19;15.80;99.90
51557;DHT22;38766;53.194;5.532;2023-05-16T09:39:52;15.80;99.90
51557;DHT22;38766;53.194;5.532;2023-05-16T09:42:21;15.90;99.90
51557;DHT22;38766;53.194;5.532;2023-05-16T09:44:52;15.90;99.90
51557;DHT22;38766;53.194;5.532;2023-05-16T09:47:20;15.80;99.90
51557;DHT22;38766;53.194;5.532;2023-05-16T09:49:50;15.70;99.90
51557;DHT22;38766;53.194;5.532;2023-05-16T09:52:16;15.60;99.90
51557;DHT22;38766;53.194;5.532;2023-05-16T09:54:42;15.50;99.90
51557;DHT22;38766;53.194;5.532;2023-05-16T09:57:08;15.40;99.90
51557;DHT22;38766;53.194;5.532;2023-05-16T09:59:36;15.50;99.90
51557;DHT22;38766;53.194;5.532;2023-05-16T10:02:02;15.40;99.90
51557;DHT22;38766;53.194;5.532;2023-05-16T10:04:30;15.30;99.90
51557;DHT22;38766;53.194;5.532;2023-05-16T10:06:56;15.30;99.90
51557;DHT22;38766;53.194;5.532;2023-05-16T10:09:24;15.20;99.90
51557;DHT22;38766;53.194;5.532;2023-05-16T10:11:51;15.00;99.90
51557;DHT22;38766;53.194;5.532;2023-05-16T10:14:18;14.80;99.90
51557;DHT22;38766;53.194;5.532;2023-05-16T10:16:46;14.70;99.90
51557;DHT22;38766;53.194;5.532;2023-05-16T10:19:13;14.50;99.90
51557;DHT22;38766;53.194;5.532;2023-05-16T10:21:41;14.30;99.90
51557;DHT22;38766;53.194;5.532;2023-05-16T10:24:10;14.30;99.90
51557;DHT22;38766;53.194;5.532;2023-05-16T10:26:40;14.40;99.90
51557;DHT22;38766;53.194;5.532;2023-05-16T10:29:06;14.30;99.90
51557;DHT22;38766;53.194;5.532;2023-05-16T10:31:32;14.20;99.90
51557;DHT22;38766;53.194;5.532;2023-05-16T10:33:58;14.10;99.90
51557;DHT22;38766;53.194;5.532;2023-05-16T10:36:24;14.20;99.90
51557;DHT22;38766;53.194;5.532;2023-05-16T10:38:50;14.20;99.90
51557;DHT22;38766;53.194;5.532;2023-05-16T10:41:17;14.30;99.90
51557;DHT22;38766;53.194;5.532;2023-05-16T10:43:44;14.30;99.90
51557;DHT22;38766;53.194;5.532;2023-05-16T10:46:22;14.30;99.90
51557;DHT22;38766;53.194;5.532;2023-05-16T10:48:47;14.10;99.90
51557;DHT22;38766;53.194;5.532;2023-05-16T10:54:04;13.90;99.90
51557;DHT22;38766;53.194;5.532;2023-05-16T10:56:32;14.00;99.90
51557;DHT22;38766;53.194;5.532;2023-05-16T10:58:58;14.10;99.90
51557;DHT22;38766;53.194;5.532;2023-05-16T11:01:25;14.20;99.90
51557;DHT22;38766;53.194;5.532;2023-05-16T11:06:27;14.70;99.90
51557;DHT22;38766;53.194;5.532;2023-05-16T11:14:26;15.10;99.90
51557;DHT22;38766;53.194;5.532;2023-05-16T11:17:12;15.20;99.90
51557;DHT22;38766;53.194;5.532;2023-05-16T11:19:39;15.30;99.90
51557;DHT22;38766;53.194;5.532;2023-05-16T11:27:30;15.60;99.90
51557;DHT22;38766;53.194;5.532;2023-05-16T11:32:38;15.80;99.90
51557;DHT22;38766;53.194;5.532;2023-05-16T11:35:06;15.90;99.90
51557;DHT22;38766;53.194;5.532;2023-05-16T11:37:33;16.00;99.90
51557;DHT22;38766;53.194;5.532;2023-05-16T11:40:02;16.00;99.90
51557;DHT22;38766;53.194;5.532;2023-05-16T11:42:39;16.00;99.90
51557;DHT22;38766;53.194;5.532;2023-05-16T11:45:14;16.00;99.90
51557;DHT22;38766;53.194;5.532;2023-05-16T11:47:42;16.00;99.90
51557;DHT22;38766;53.194;5.532;2023-05-16T11:50:16;16.00;99.90
51557;DHT22;38766;53.194;5.532;2023-05-16T11:52:45;16.10;99.90
51557;DHT22;38766;53.194;5.532;2023-05-16T11:55:12;16.20;99.90
51557;DHT22;38766;53.194;5.532;2023-05-16T11:57:39;16.20;99.60
51557;DHT22;38766;53.194;5.532;2023-05-16T12:00:19;16.20;99.10
51557;DHT22;38766;53.194;5.532;2023-05-16T12:02:46;16.20;99.20
51557;DHT22;38766;53.194;5.532;2023-05-16T12:05:13;16.10;99.60
51557;DHT22;38766;53.194;5.532;2023-05-16T12:07:39;16.10;99.90
51557;DHT22;38766;53.194;5.532;2023-05-16T12:10:07;16.10;99.90
51557;DHT22;38766;53.194;5.532;2023-05-16T12:12:33;16.10;99.90
51557;DHT22;38766;53.194;5.532;2023-05-16T12:15:01;16.10;99.90
51557;DHT22;38766;53.194;5.532;2023-05-16T12:17:27;16.00;99.90
51557;DHT22;38766;53.194;5.532;2023-05-16T12:19:53;16.00;99.90
51557;DHT22;38766;53.194;5.532;2023-05-16T12:22:21;15.90;99.90
51557;DHT22;38766;53.194;5.532;2023-05-16T12:24:50;15.90;99.90
51557;DHT22;38766;53.194;5.532;2023-05-16T12:27:23;15.90;99.90
51557;DHT22;38766;53.194;5.532;2023-05-16T12:29:49;15.80;99.90
51557;DHT22;38766;53.194;5.532;2023-05-16T12:32:19;15.70;99.90
51557;DHT22;38766;53.194;5.532;2023-05-16T12:34:52;15.70;99.90
51557;DHT22;38766;53.194;5.532;2023-05-16T12:37:20;15.80;99.90
51557;DHT22;38766;53.194;5.532;2023-05-16T12:39:46;15.80;99.90
51557;DHT22;38766;53.194;5.532;2023-05-16T12:42:13;15.80;99.90
51557;DHT22;38766;53.194;5.532;2023-05-16T12:44:39;15.90;99.90
51557;DHT22;38766;53.194;5.532;2023-05-16T12:47:14;15.80;99.90
51557;DHT22;38766;53.194;5.532;2023-05-16T12:49:47;15.80;99.90
51557;DHT22;38766;53.194;5.532;2023-05-16T12:52:20;15.70;99.90
51557;DHT22;38766;53.194;5.532;2023-05-16T12:54:46;15.80;99.90
51557;DHT22;38766;53.194;5.532;2023-05-16T12:57:12;15.80;99.90
51557;DHT22;38766;53.194;5.532;2023-05-16T12:59:38;15.90;99.80
51557;DHT22;38766;53.194;5.532;2023-05-16T13:02:04;15.90;99.90
51557;DHT22;38766;53.194;5.532;2023-05-16T13:04:30;16.00;99.90
51557;DHT22;38766;53.194;5.532;2023-05-16T13:06:56;16.20;99.50
51557;DHT22;38766;53.194;5.532;2023-05-16T13:09:22;16.30;99.30
51557;DHT22;38766;53.194;5.532;2023-05-16T13:11:48;16.40;98.60
51557;DHT22;38766;53.194;5.532;2023-05-16T13:14:15;16.30;97.90
51557;DHT22;38766;53.194;5.532;2023-05-16T13:16:42;16.30;97.80
51557;DHT22;38766;53.194;5.532;2023-05-16T13:19:09;16.30;97.20
51557;DHT22;38766;53.194;5.532;2023-05-16T13:21:35;16.10;97.10
51557;DHT22;38766;53.194;5.532;2023-05-16T13:24:00;16.10;97.20
51557;DHT22;38766;53.194;5.532;2023-05-16T13:26:26;16.00;96.90
51557;DHT22;38766;53.194;5.532;2023-05-16T13:28:52;16.00;96.80
51557;DHT22;38766;53.194;5.532;2023-05-16T13:31:19;15.90;96.40
51557;DHT22;38766;53.194;5.532;2023-05-16T13:33:45;15.80;96.70
51557;DHT22;38766;53.194;5.532;2023-05-16T13:36:11;15.70;96.80
51557;DHT22;38766;53.194;5.532;2023-05-16T13:38:37;15.80;96.80
51557;DHT22;38766;53.194;5.532;2023-05-16T13:41:02;15.80;96.90
51557;DHT22;38766;53.194;5.532;2023-05-16T13:43:28;15.80;97.20
51557;DHT22;38766;53.194;5.532;2023-05-16T13:45:53;15.80;97.10
51557;DHT22;38766;53.194;5.532;2023-05-16T13:48:19;15.80;97.20
51557;DHT22;38766;53.194;5.532;2023-05-16T13:50:45;15.70;97.40
51557;DHT22;38766;53.194;5.532;2023-05-16T13:53:11;15.70;97.00
51557;DHT22;38766;53.194;5.532;2023-05-16T13:55:37;15.70;96.90
51557;DHT22;38766;53.194;5.532;2023-05-16T13:58:02;15.60;96.90
51557;DHT22;38766;53.194;5.532;2023-05-16T14:00:28;15.60;97.00
51557;DHT22;38766;53.194;5.532;2023-05-16T14:02:54;15.60;97.10
51557;DHT22;38766;53.194;5.532;2023-05-16T14:05:20;15.60;97.30
51557;DHT22;38766;53.194;5.532;2023-05-16T14:07:46;15.60;97.30
51557;DHT22;38766;53.194;5.532;2023-05-16T14:10:12;15.50;97.00
51557;DHT22;38766;53.194;5.532;2023-05-16T14:12:38;15.50;97.20
51557;DHT22;38766;53.194;5.532;2023-05-16T14:15:05;15.50;97.30
51557;DHT22;38766;53.194;5.532;2023-05-16T14:17:30;15.50;97.30
51557;DHT22;38766;53.194;5.532;2023-05-16T14:19:57;15.40;97.20
51557;DHT22;38766;53.194;5.532;2023-05-16T14:22:22;15.30;97.60
51557;DHT22;38766;53.194;5.532;2023-05-16T14:24:48;15.30;98.00
51557;DHT22;38766;53.194;5.532;2023-05-16T14:27:14;15.20;98.40
51557;DHT22;38766;53.194;5.532;2023-05-16T14:29:41;15.20;98.90
51557;DHT22;38766;53.194;5.532;2023-05-16T14:32:08;15.10;99.30
51557;DHT22;38766;53.194;5.532;2023-05-16T14:34:34;15.00;99.70
51557;DHT22;38766;53.194;5.532;2023-05-16T14:37:00;15.00;99.90
51557;DHT22;38766;53.194;5.532;2023-05-16T14:39:26;15.00;99.90
51557;DHT22;38766;53.194;5.532;2023-05-16T14:41:51;14.90;99.90
51557;DHT22;38766;53.194;5.532;2023-05-16T14:44:17;14.80;99.90
51557;DHT22;38766;53.194;5.532;2023-05-16T14:46:44;14.70;99.90
51557;DHT22;38766;53.194;5.532;2023-05-16T14:49:10;14.70;99.90
51557;DHT22;38766;53.194;5.532;2023-05-16T14:51:36;14.70;99.90
51557;DHT22;38766;53.194;5.532;2023-05-16T14:54:02;14.70;99.90
51557;DHT22;38766;53.194;5.532;2023-05-16T14:56:28;14.70;99.90
51557;DHT22;38766;53.194;5.532;2023-05-16T14:58:54;14.70;99.90
51557;DHT22;38766;53.194;5.532;2023-05-16T15:01:20;14.70;99.90
51557;DHT22;38766;53.194;5.532;2023-05-16T15:03:46;14.80;99.90
51557;DHT22;38766;53.194;5.532;2023-05-16T15:06:12;14.80;99.90
51557;DHT22;38766;53.194;5.532;2023-05-16T15:08:37;14.80;99.90
51557;DHT22;38766;53.194;5.532;2023-05-16T15:11:03;14.70;99.90
51557;DHT22;38766;53.194;5.532;2023-05-16T15:13:29;14.70;99.90
51557;DHT22;38766;53.194;5.532;2023-05-16T15:15:55;14.60;99.90
51557;DHT22;38766;53.194;5.532;2023-05-16T15:18:22;14.60;99.90
51557;DHT22;38766;53.194;5.532;2023-05-16T15:20:48;14.60;99.90
51557;DHT22;38766;53.194;5.532;2023-05-16T15:23:13;14.60;99.90
51557;DHT22;38766;53.194;5.532;2023-05-16T15:25:39;14.60;99.90
51557;DHT22;38766;53.194;5.532;2023-05-16T15:28:05;14.60;99.90
51557;DHT22;38766;53.194;5.532;2023-05-16T15:30:31;14.60;99.90
51557;DHT22;38766;53.194;5.532;2023-05-16T15:32:56;14.60;99.90
51557;DHT22;38766;53.194;5.532;2023-05-16T15:35:22;14.70;99.90
51557;DHT22;38766;53.194;5.532;2023-05-16T15:37:47;14.70;99.90
51557;DHT22;38766;53.194;5.532;2023-05-16T15:40:13;14.70;99.90
51557;DHT22;38766;53.194;5.532;2023-05-16T15:42:39;14.80;99.90
51557;DHT22;38766;53.194;5.532;2023-05-16T15:45:08;14.80;99.90
51557;DHT22;38766;53.194;5.532;2023-05-16T15:47:34;14.90;99.90
51557;DHT22;38766;53.194;5.532;2023-05-16T15:50:00;15.00;99.90
51557;DHT22;38766;53.194;5.532;2023-05-16T15:52:26;15.10;99.90
51557;DHT22;38766;53.194;5.532;2023-05-16T15:54:51;15.10;99.90
51557;DHT22;38766;53.194;5.532;2023-05-16T15:57:17;15.10;99.90
51557;DHT22;38766;53.194;5.532;2023-05-16T15:59:43;15.20;99.90
51557;DHT22;38766;53.194;5.532;2023-05-16T16:02:09;15.20;99.90
51557;DHT22;38766;53.194;5.532;2023-05-16T16:04:34;15.20;99.90